Date,TemperatureHighF,TemperatureAvgF,TemperatureLowF,DewpointHighF,DewpointAvgF,DewpointLowF,HumidityHigh,HumidityAvg,HumidityLow,PressureMaxIn,PressureMinIn,WindSpeedMaxMPH,WindSpeedAvgMPH,GustSpeedMaxMPH,PrecipitationSumIn
2013-7-4,84.7,71.7,73.0,70.1,61.8,-99.9,90,79,73,29.91,29.89,3,-45,0,0.04
2013-7-5,84.9,76.7,71.6,74.2,70.8,68.2,94,83,65,29.92,29.85,7,1,0,0.01
2013-7-6,88.5,76.2,70.0,69.6,67.0,65.4,88,74,51,29.96,29.83,6,2,0,0.00
2013-7-7,88.5,77.6,70.2,73.7,69.1,65.1,99,77,54,29.87,29.75,7,2,0,0.61
2013-7-8,82.8,75.8,71.4,72.3,69.3,65.5,92,81,67,29.90,29.80,4,1,0,0.07
2013-7-9,85.8,76.1,71.1,73.2,70.5,67.7,98,84,59,29.90,29.75,5,1,0,0.00
2013-7-10,87.8,79.2,72.3,73.6,70.5,63.9,97,76,61,29.75,29.59,10,4,0,0.01
2013-7-11,76.1,69.8,63.7,65.5,60.9,57.4,93,74,62,29.93,29.71,5,3,0,0.00
2013-7-12,72.9,67.8,62.6,66.0,63.7,61.7,99,87,74,30.09,29.93,5,1,0,0.00
2013-7-13,82.2,72.5,63.0,71.2,67.1,62.4,99,84,66,30.14,30.06,5,2,0,0.00
2013-7-14,84.0,77.0,69.3,72.7,69.4,67.0,96,78,61,30.18,30.11,5,1,0,0.00
2013-7-15,88.5,80.1,74.1,74.2,69.4,63.9,88,71,48,30.16,30.07,4,1,0,0.00
2013-7-16,87.6,79.9,70.7,71.0,67.8,63.9,90,68,53,30.13,30.03,4,1,0,0.00
2013-7-17,95.5,84.4,75.6,77.7,73.4,68.1,84,71,52,30.06,29.88,8,3,0,0.00
2013-7-18,88.9,82.9,77.0,78.5,74.6,71.8,91,77,63,29.92,29.76,5,2,0,0.31
2013-7-19,94.6,83.6,69.8,75.1,71.6,66.7,95,69,47,29.77,29.54,12,5,0,0.26
2013-7-20,82.8,74.1,68.9,70.7,65.7,56.8,99,78,43,29.75,29.55,10,2,0,0.47
2013-7-21,73.8,69.1,64.0,63.9,59.9,56.9,88,73,59,29.90,29.74,6,2,0,0.00
2013-7-22,77.0,70.0,61.2,67.3,61.8,57.3,96,76,58,29.88,29.65,7,2,0,0.04
2013-7-23,87.1,74.2,67.8,71.5,67.4,59.2,99,81,44,29.64,29.49,9,2,0,0.03
2013-7-24,68.9,63.3,57.6,59.5,52.3,48.6,80,68,52,29.95,29.59,7,2,0,0.00
2013-7-25,72.3,63.3,52.5,55.8,52.7,50.5,94,70,48,30.04,29.95,6,2,0,0.00
2013-7-26,75.4,65.5,55.0,59.6,54.0,46.7,93,69,37,30.03,29.91,6,1,0,0.00
2013-7-27,81.5,70.8,60.3,68.5,61.6,55.1,99,74,52,29.91,29.72,5,1,0,0.08
2013-7-28,71.4,67.7,61.9,68.1,63.0,58.2,99,86,68,29.88,29.71,5,1,0,0.04
2013-7-29,73.9,65.4,58.5,58.3,55.8,52.8,91,72,51,30.04,29.88,6,2,0,0.00
2013-7-30,76.8,67.3,59.0,60.9,58.2,56.4,91,74,53,30.11,30.04,8,2,0,0.00
2013-7-31,81.0,69.1,59.2,68.1,61.3,55.4,98,78,43,30.06,29.82,6,2,0,0.00
2013-8-1,77.7,69.7,65.7,69.7,64.8,61.7,99,85,59,29.82,29.67,5,2,0,0.34
2013-8-2,77.9,67.9,61.0,64.0,61.5,55.7,97,81,53,29.81,29.74,5,1,0,0.13
2013-8-3,79.3,68.7,61.3,62.7,59.2,53.8,99,75,44,29.82,29.72,7,2,0,0.39
2013-8-4,72.5,65.6,59.7,60.0,55.4,51.6,90,71,51,29.97,29.82,6,3,0,0.00
2013-8-5,73.6,64.9,55.4,58.1,55.1,52.1,96,72,50,30.03,29.93,6,2,0,0.00
2013-8-6,79.7,67.6,56.7,62.4,57.3,53.1,91,71,40,29.98,29.90,6,2,0,0.00
2013-8-7,83.7,73.9,65.7,68.5,64.2,59.8,84,72,57,29.91,29.77,6,2,0,0.00
2013-8-8,78.6,73.4,67.8,71.1,68.4,64.4,99,85,75,29.87,29.80,6,2,0,0.12
2013-8-9,78.6,71.5,67.5,70.5,67.3,60.2,99,88,60,29.82,29.76,5,1,0,1.00
2013-8-10,73.2,67.2,60.1,61.5,56.1,50.1,87,69,45,30.01,29.83,7,2,0,0.00
2013-8-11,75.4,65.4,55.8,59.0,56.4,53.5,96,74,55,30.05,29.95,6,1,0,0.00
2013-8-12,79.2,69.9,61.3,66.0,60.4,56.7,87,72,53,29.96,29.77,4,1,0,0.00
2013-8-13,73.0,66.8,60.1,68.0,60.7,49.6,99,82,58,29.77,29.65,7,2,0,0.45
2013-8-14,71.4,61.5,54.1,55.4,51.4,48.5,96,71,48,29.98,29.74,9,4,0,0.00
2013-8-15,76.6,64.4,53.8,56.0,51.6,49.3,86,65,43,30.05,29.98,8,3,0,0.00
2013-8-16,75.9,66.5,56.1,59.6,55.5,52.2,87,69,51,30.12,30.02,5,2,0,0.00
2013-8-17,81.1,68.6,57.9,62.9,58.3,55.5,92,72,50,30.22,30.12,5,1,0,0.00
2013-8-18,77.9,69.0,60.4,64.2,60.2,56.8,88,74,56,30.17,30.02,4,1,0,0.00
2013-8-19,80.8,71.5,63.0,67.5,61.9,58.5,89,73,50,30.03,29.93,6,2,0,0.00
2013-8-20,88.0,74.6,64.0,63.9,61.6,59.4,88,66,41,30.04,29.96,7,3,0,0.00
2013-8-21,90.9,77.0,65.5,66.2,62.5,60.5,85,63,41,30.07,29.92,7,2,0,0.00
2013-8-22,86.7,75.8,70.0,72.1,66.0,58.8,90,72,55,29.93,29.80,8,2,0,0.03
2013-8-23,70.7,66.3,59.4,60.8,58.4,54.7,92,76,63,30.13,29.89,7,2,0,0.00
2013-8-24,75.7,65.4,55.8,56.5,53.0,46.5,95,68,37,30.28,30.13,5,1,0,0.00
2013-8-25,83.7,70.3,54.3,63.6,55.7,52.9,95,63,36,30.26,30.03,5,2,0,0.00
2013-8-26,79.9,71.0,66.9,71.4,66.9,61.3,99,88,71,30.04,29.83,8,3,0,1.13
2013-8-27,78.4,72.4,68.5,72.1,70.0,68.2,99,92,80,29.85,29.78,4,1,0,0.00
2013-8-28,78.6,73.6,69.4,72.3,70.5,68.8,99,91,77,29.86,29.75,6,1,0,0.08
2013-8-29,79.2,72.5,67.5,71.8,69.3,66.9,99,90,74,29.96,29.86,5,1,0,0.00
2013-8-30,88.0,75.8,65.7,70.2,67.0,64.8,98,76,53,29.91,29.66,5,1,0,0.00
2013-8-31,79.3,73.0,68.5,72.3,70.1,67.3,99,91,75,29.77,29.62,5,1,0,0.25
2013-9-1,80.2,72.5,67.8,70.6,68.6,67.2,99,88,72,29.76,29.66,5,2,0,0.09
2013-9-2,84.2,72.7,65.7,73.4,68.1,58.4,99,87,65,29.69,29.56,10,2,0,0.06
2013-9-3,68.2,65.0,61.9,59.8,57.7,56.2,84,77,70,29.84,29.68,9,4,0,0.00
2013-9-4,80.8,68.4,57.6,64.0,56.4,49.6,88,69,35,29.89,29.84,10,4,0,0.00
2013-9-5,66.4,61.3,52.0,57.9,48.8,40.2,85,65,39,30.13,29.87,8,2,0,0.00
2013-9-6,73.2,59.6,46.9,53.6,47.3,42.7,88,66,40,30.20,30.00,5,1,0,0.00
2013-9-7,65.5,61.3,56.5,60.7,54.5,48.4,92,78,61,30.00,29.77,4,1,0,0.06
2013-9-8,67.8,62.1,52.7,65.1,51.4,43.9,99,70,42,30.02,29.75,7,2,0,0.03
2013-9-9,79.0,62.6,47.8,62.4,52.5,45.0,91,71,46,30.07,29.87,7,1,0,0.00
2013-9-10,93.2,79.9,68.4,75.9,69.9,61.2,96,73,54,29.89,29.79,9,4,0,0.30
2013-9-11,94.6,84.0,76.6,74.0,71.9,66.4,81,68,47,29.93,29.79,7,3,0,0.00
2013-9-12,76.6,70.1,62.2,69.6,66.2,59.2,96,88,72,29.83,29.62,8,2,0,0.14
2013-9-13,62.1,55.6,51.3,59.7,52.3,46.5,99,89,82,29.92,29.64,8,3,0,0.22
2013-9-14,65.8,54.3,50.4,49.8,45.2,40.5,89,72,45,30.04,29.91,5,2,0,0.00
2013-9-15,69.4,58.6,48.4,53.7,48.3,41.8,96,70,53,30.07,29.95,7,2,0,0.09
2013-9-16,54.7,51.8,47.7,53.9,49.1,44.0,98,91,71,30.30,29.98,5,1,0,0.12
2013-9-17,62.6,52.0,41.2,48.3,44.1,39.9,98,77,49,30.42,30.23,7,1,0,0.01
2013-9-18,70.5,57.5,46.6,54.3,47.0,41.9,93,71,37,30.22,30.02,5,1,0,0.00
2013-9-19,79.7,64.4,54.1,62.6,54.5,47.2,96,72,39,30.04,29.92,7,1,0,0.00
2013-9-20,88.3,71.6,59.2,65.7,61.1,56.4,96,72,46,29.92,29.67,5,1,0,0.00
2013-9-21,73.2,64.6,54.5,62.5,60.5,53.4,99,88,65,29.67,29.53,6,2,0,1.14
2013-9-22,56.8,52.7,51.1,52.9,46.2,42.0,96,79,63,29.92,29.62,7,3,0,0.00
2013-9-23,61.5,52.9,46.9,45.2,43.0,40.4,86,70,53,30.08,29.92,6,2,0,0.00
2013-9-24,65.8,52.6,43.0,48.7,44.6,41.9,97,76,46,30.06,29.92,6,1,0,0.00
2013-9-25,66.2,54.8,45.0,54.4,47.7,43.2,95,78,51,29.93,29.88,4,1,0,0.00
2013-9-26,68.2,56.6,46.6,58.5,51.7,45.5,98,85,62,30.07,29.91,6,1,0,0.00
2013-9-27,64.6,56.9,50.4,55.8,53.0,49.6,99,87,69,30.19,30.07,7,1,0,0.00
2013-9-28,75.0,59.4,48.0,60.4,53.4,47.7,99,82,55,30.23,30.08,5,1,0,0.00
2013-9-29,78.4,62.6,51.3,56.5,52.4,48.2,92,71,46,30.09,29.90,5,1,0,0.00
2013-9-30,75.2,67.4,58.6,61.7,58.0,51.8,85,72,60,29.92,29.84,4,1,0,0.00
2013-10-1,72.0,66.5,60.4,62.2,60.1,57.9,93,80,63,29.93,29.85,5,2,0,0.00
2013-10-3,62.8,61.4,59.4,58.3,56.6,55.0,94,84,77,29.95,29.93,3,1,0,0.03
2013-10-4,63.7,61.4,58.6,63.0,59.8,56.2,99,95,87,29.98,29.89,5,1,0,0.34
2013-10-5,62.2,60.9,59.9,59.7,57.8,55.8,95,90,83,30.02,29.95,8,1,0,0.02
2013-10-6,81.3,68.4,60.8,72.8,65.3,58.5,99,91,74,29.94,29.63,5,1,0,0.42
2013-10-7,73.6,61.4,52.0,65.9,56.0,47.4,98,83,66,29.94,29.52,10,4,0,0.54
2013-10-8,60.8,53.5,46.4,48.8,46.5,44.0,93,78,56,30.27,29.95,6,2,0,0.00
2013-10-9,66.0,52.8,42.4,54.5,47.4,41.9,98,83,57,30.34,30.20,6,1,0,0.00
2013-10-10,64.4,52.6,41.4,51.3,46.0,40.9,99,80,51,30.21,30.08,4,1,0,0.00
2013-10-11,64.2,53.6,45.1,55.6,49.9,44.8,99,88,69,30.09,30.05,7,1,0,0.00
2013-10-12,77.7,57.7,43.7,55.2,46.5,38.1,99,73,26,30.12,30.05,8,1,0,0.00
2013-10-13,72.5,63.0,54.1,61.4,55.9,44.9,97,78,64,30.20,30.10,6,2,0,0.04
2013-10-14,62.2,57.0,48.4,60.0,53.8,47.3,99,90,68,30.25,30.16,6,2,0,0.13
2013-10-15,69.3,56.6,43.9,57.0,51.7,43.6,99,85,64,30.20,29.86,5,1,0,0.00
2013-10-16,67.8,61.6,57.7,59.3,55.4,50.5,96,81,64,29.86,29.66,7,2,0,0.16
2013-10-17,67.3,57.1,50.4,54.4,50.8,47.2,99,80,55,29.79,29.57,7,3,0,0.31
2013-10-18,58.1,50.7,46.0,52.9,41.9,34.1,99,74,45,29.63,28.16,11,4,0,0.04
2013-10-19,61.3,51.3,40.6,46.1,40.4,37.6,92,67,47,28.32,28.06,9,3,0,0.07
2013-10-20,51.4,44.2,37.9,41.1,37.2,34.0,93,77,55,28.41,28.17,9,4,0,0.00
2013-10-21,64.2,52.2,42.0,45.8,37.9,35.1,94,61,34,28.41,28.22,6,2,0,0.00
2013-10-22,49.2,44.1,39.3,45.3,34.4,24.2,98,71,42,28.27,28.17,17,4,0,0.15
2013-10-23,42.9,38.2,32.1,35.8,32.1,26.4,89,79,63,28.26,28.13,6,3,0,0.01
2013-10-24,46.0,37.7,30.9,34.3,30.7,26.9,97,77,52,28.43,28.22,13,5,0,0.24
2013-10-25,46.0,38.2,31.8,35.2,33.3,31.1,99,83,62,28.60,28.43,6,3,0,0.00
2013-10-26,42.6,39.7,35.2,33.1,29.3,24.9,92,67,52,28.54,28.21,13,5,0,0.00
2013-10-27,44.7,39.0,34.1,34.0,32.5,29.7,91,78,63,28.48,28.23,8,3,0,0.00
2013-10-28,44.0,38.5,27.6,36.1,28.7,19.5,83,68,48,28.81,28.45,7,3,0,0.00
2013-10-29,40.8,32.8,23.9,27.9,24.1,19.8,89,71,52,28.90,28.72,6,1,0,0.00
2013-10-30,50.5,40.8,33.6,39.4,36.1,29.2,99,84,61,28.72,28.52,5,1,0,0.05
2013-10-31,62.4,51.0,38.4,55.8,47.5,35.0,99,88,72,28.52,27.83,6,1,0,0.43
2013-11-1,60.0,54.0,44.9,54.9,46.4,40.0,95,76,57,28.11,27.63,25,7,0,0.83
2013-11-2,48.2,41.6,34.8,43.1,38.9,28.8,97,90,76,28.42,28.04,8,3,0,0.47
2013-11-3,35.0,31.2,27.3,29.2,21.8,18.8,79,68,55,28.94,28.43,9,3,0,0.00
2013-11-4,38.8,31.2,21.2,22.5,18.2,12.9,95,62,34,29.07,28.86,9,2,0,0.00
2013-11-5,55.5,42.8,30.5,33.9,26.3,17.1,66,52,43,28.89,28.74,6,1,0,0.00
2013-11-6,61.8,52.8,42.9,51.9,41.0,31.1,94,65,53,28.74,28.22,7,2,0,0.05
2013-11-7,53.6,41.0,35.6,51.8,35.1,27.2,95,80,58,28.40,28.21,12,4,0,0.36
2013-11-8,39.5,35.9,34.5,28.8,26.1,22.1,76,67,53,28.64,28.37,18,6,0,0.00
2013-11-9,45.6,38.9,32.5,38.8,28.7,24.5,89,67,51,28.64,28.19,11,3,0,0.02
2013-11-10,46.2,40.7,36.3,38.8,32.4,27.1,85,72,65,28.56,28.19,23,7,0,0.03
2013-11-11,42.6,34.3,26.2,34.0,28.6,21.8,99,80,58,28.58,28.35,8,4,0,0.41
2013-11-12,29.3,24.6,21.3,24.1,18.9,14.7,95,79,64,28.79,28.53,9,4,0,0.00
2013-11-13,34.8,26.8,16.8,24.0,17.2,11.2,83,67,53,28.84,28.49,14,5,0,0.03
2013-11-14,46.7,38.1,31.8,25.5,17.9,13.5,62,45,29,28.53,28.42,17,5,0,0.00
2013-11-15,50.0,41.6,35.7,25.7,20.8,16.2,57,43,34,28.54,28.46,6,2,0,0.00
2013-11-16,55.7,45.5,36.3,37.8,30.5,21.3,72,56,45,28.67,28.46,5,1,0,0.00
2013-11-17,57.7,51.9,46.2,50.4,46.1,37.8,95,81,70,28.46,27.79,8,3,0,0.36
2013-11-18,50.7,43.5,32.7,45.1,33.2,24.3,89,67,56,28.30,27.81,20,10,0,0.17
2013-11-19,34.3,31.7,27.1,26.2,22.6,18.3,77,69,57,28.86,28.30,12,4,0,0.03
2013-11-20,34.3,27.4,21.0,21.3,17.5,14.7,83,67,47,29.02,28.86,7,2,0,0.00
2013-11-21,42.8,35.6,26.7,34.0,22.4,12.3,88,59,47,28.87,28.68,7,3,0,0.00
2013-11-22,42.9,38.3,29.4,42.6,37.0,25.1,99,95,82,28.67,28.41,14,2,0,0.39
2013-11-23,32.7,24.6,14.5,25.2,18.3,6.4,95,77,55,28.62,28.42,22,7,0,0.00
2013-11-24,21.3,17.2,13.2,13.4,9.6,5.8,93,72,58,28.81,28.57,13,6,0,0.00
2013-11-25,30.9,24.8,15.2,18.8,11.7,7.5,85,59,37,28.81,28.52,9,4,0,0.00
2013-11-26,33.4,30.2,28.2,28.5,24.8,19.0,99,81,63,28.57,28.25,6,2,0,0.00
2013-11-27,30.7,26.7,19.2,29.5,24.3,13.5,99,91,75,28.31,28.05,10,3,0,0.05
2013-11-28,25.8,20.1,16.1,15.9,12.7,9.8,91,73,56,28.84,28.31,8,4,0,0.00
2013-11-29,28.2,19.1,9.8,18.7,12.5,8.4,96,77,54,29.15,28.84,6,2,0,0.01
2013-11-30,29.4,19.6,7.7,19.9,13.3,5.9,95,77,56,29.13,28.61,7,2,0,0.00
2013-12-1,38.6,31.6,27.5,30.6,26.7,20.0,99,83,62,28.61,28.38,6,1,0,0.35
2013-12-2,37.4,32.3,29.1,31.6,29.8,27.3,99,91,74,28.39,28.29,6,1,0,0.09
2013-12-3,36.1,29.6,24.8,27.6,25.7,23.2,98,86,66,28.44,28.33,4,1,0,0.00
2013-12-4,42.9,33.3,27.3,35.2,30.4,24.9,96,89,73,28.46,28.33,5,2,0,0.00
2013-12-5,59.0,47.1,35.4,50.4,40.6,28.7,88,78,59,28.42,28.17,14,4,0,0.01
2013-12-6,34.5,30.5,27.6,30.8,24.5,19.8,97,78,66,28.66,28.43,7,4,0,0.20
2013-12-7,28.4,24.9,21.5,23.2,16.1,11.6,89,69,50,28.96,28.65,13,5,0,0.00
2013-12-8,26.4,21.7,17.0,13.5,10.7,8.7,70,62,50,28.99,28.80,9,3,0,0.00
2013-12-16,1.0,1.0,1.0,-0.8,-0.8,-0.8,92,92,92,28.59,28.58,0,0,0,0.00
2013-12-17,23.5,15.3,0.1,21.6,12.7,-1.7,95,90,79,28.57,28.32,7,2,0,0.00
2013-12-18,28.5,24.7,21.0,20.5,18.6,16.7,94,78,65,28.49,28.34,9,4,0,0.00
2013-12-19,39.2,31.5,21.9,29.4,23.8,15.2,87,73,62,28.47,28.32,14,3,0,0.26
2013-12-20,40.2,34.3,30.7,37.9,33.2,28.7,99,96,85,28.43,28.21,5,1,0,0.28
2013-12-21,49.1,33.5,27.6,46.9,33.1,27.4,99,98,88,28.32,28.14,8,3,0,0.79
2013-12-22,39.3,31.3,27.6,38.1,30.7,27.4,99,98,89,28.39,28.03,10,3,0,0.78
2013-12-23,36.8,31.2,23.3,33.7,28.4,20.0,96,89,81,28.67,28.37,9,3,0,0.00
2013-12-24,23.0,16.5,6.6,20.0,14.1,4.5,94,90,82,28.91,28.64,10,3,0,0.00
2013-12-25,19.5,11.6,1.4,12.5,6.5,0.1,94,80,63,28.94,28.63,5,2,0,0.00
2013-12-26,28.0,23.6,19.4,25.3,17.2,11.9,91,76,69,28.68,28.48,9,3,0,0.00
2013-12-27,29.6,23.5,17.6,23.4,18.2,10.4,91,80,71,28.70,28.49,8,3,0,0.00
2013-12-28,39.7,33.7,26.6,30.9,27.2,22.5,97,77,62,28.50,28.35,12,4,0,0.05
2013-12-29,42.6,36.5,24.9,36.0,29.5,22.4,92,77,53,28.35,28.04,7,3,0,0.00
2013-12-30,24.2,16.5,12.2,21.4,11.7,7.6,90,81,73,28.64,28.18,16,5,0,0.00